sensor_id;sensor_type;location;lat;lon;timestamp;P1;durP1;ratioP1;P2;durP2;ratioP2
18748;SDS011;9503;53.560;10.246;2022-12-24T00:01:41;91.50;;;22.57;;
18748;SDS011;9503;53.560;10.246;2022-12-24T00:04:08;91.93;;;23.77;;
18748;SDS011;9503;53.560;10.246;2022-12-24T00:06:34;89.33;;;22.47;;
18748;SDS011;9503;53.560;10.246;2022-12-24T00:09:02;97.60;;;23.00;;
18748;SDS011;9503;53.560;10.246;2022-12-24T00:11:29;89.90;;;22.63;;
18748;SDS011;9503;53.560;10.246;2022-12-24T00:13:56;76.27;;;22.07;;
18748;SDS011;9503;53.560;10.246;2022-12-24T00:16:22;98.10;;;21.73;;
18748;SDS011;9503;53.560;10.246;2022-12-24T00:18:49;92.13;;;22.97;;
18748;SDS011;9503;53.560;10.246;2022-12-24T00:21:15;114.77;;;25.70;;
18748;SDS011;9503;53.560;10.246;2022-12-24T00:23:42;89.73;;;23.53;;
18748;SDS011;9503;53.560;10.246;2022-12-24T00:26:11;104.13;;;23.53;;
18748;SDS011;9503;53.560;10.246;2022-12-24T00:28:38;81.63;;;23.33;;
18748;SDS011;9503;53.560;10.246;2022-12-24T00:31:08;108.07;;;24.20;;
18748;SDS011;9503;53.560;10.246;2022-12-24T00:33:36;92.77;;;22.00;;
18748;SDS011;9503;53.560;10.246;2022-12-24T00:36:03;92.13;;;23.03;;
18748;SDS011;9503;53.560;10.246;2022-12-24T00:38:30;94.03;;;22.70;;
18748;SDS011;9503;53.560;10.246;2022-12-24T00:40:57;102.27;;;24.27;;
18748;SDS011;9503;53.560;10.246;2022-12-24T00:43:27;81.97;;;21.57;;
18748;SDS011;9503;53.560;10.246;2022-12-24T00:45:55;83.30;;;22.93;;
18748;SDS011;9503;53.560;10.246;2022-12-24T00:48:22;89.87;;;21.17;;
18748;SDS011;9503;53.560;10.246;2022-12-24T00:50:49;94.40;;;24.00;;
18748;SDS011;9503;53.560;10.246;2022-12-24T00:53:16;103.47;;;23.50;;
18748;SDS011;9503;53.560;10.246;2022-12-24T00:55:45;84.00;;;21.60;;
18748;SDS011;9503;53.560;10.246;2022-12-24T00:58:12;81.27;;;21.30;;
18748;SDS011;9503;53.560;10.246;2022-12-24T01:00:40;76.97;;;20.77;;
18748;SDS011;9503;53.560;10.246;2022-12-24T01:03:06;81.47;;;20.60;;
18748;SDS011;9503;53.560;10.246;2022-12-24T01:05:33;84.17;;;21.47;;
18748;SDS011;9503;53.560;10.246;2022-12-24T01:07:58;72.60;;;21.00;;
18748;SDS011;9503;53.560;10.246;2022-12-24T01:10:25;73.20;;;20.03;;
18748;SDS011;9503;53.560;10.246;2022-12-24T01:12:52;87.27;;;22.77;;
18748;SDS011;9503;53.560;10.246;2022-12-24T01:15:18;82.40;;;19.23;;
18748;SDS011;9503;53.560;10.246;2022-12-24T01:17:46;71.13;;;20.80;;
18748;SDS011;9503;53.560;10.246;2022-12-24T01:20:15;76.00;;;20.00;;
18748;SDS011;9503;53.560;10.246;2022-12-24T01:22:42;81.83;;;20.23;;
18748;SDS011;9503;53.560;10.246;2022-12-24T01:25:09;72.50;;;19.53;;
18748;SDS011;9503;53.560;10.246;2022-12-24T01:27:36;82.80;;;21.00;;
18748;SDS011;9503;53.560;10.246;2022-12-24T01:30:03;68.83;;;19.67;;
18748;SDS011;9503;53.560;10.246;2022-12-24T01:32:30;87.40;;;19.93;;
18748;SDS011;9503;53.560;10.246;2022-12-24T01:34:58;77.77;;;20.30;;
18748;SDS011;9503;53.560;10.246;2022-12-24T01:37:25;74.13;;;19.27;;
18748;SDS011;9503;53.560;10.246;2022-12-24T01:39:51;77.57;;;19.53;;
18748;SDS011;9503;53.560;10.246;2022-12-24T01:42:40;71.77;;;18.50;;
18748;SDS011;9503;53.560;10.246;2022-12-24T01:48:14;83.40;;;20.40;;
18748;SDS011;9503;53.560;10.246;2022-12-24T01:50:47;75.97;;;20.37;;
18748;SDS011;9503;53.560;10.246;2022-12-24T01:53:18;83.13;;;17.97;;
18748;SDS011;9503;53.560;10.246;2022-12-24T01:55:45;75.07;;;18.60;;
18748;SDS011;9503;53.560;10.246;2022-12-24T01:58:13;61.70;;;16.97;;
18748;SDS011;9503;53.560;10.246;2022-12-24T02:00:41;70.73;;;18.87;;
18748;SDS011;9503;53.560;10.246;2022-12-24T02:03:07;84.87;;;18.17;;
18748;SDS011;9503;53.560;10.246;2022-12-24T02:05:35;64.37;;;17.40;;
18748;SDS011;9503;53.560;10.246;2022-12-24T02:08:08;72.63;;;17.37;;
18748;SDS011;9503;53.560;10.246;2022-12-24T02:10:35;68.30;;;18.03;;
18748;SDS011;9503;53.560;10.246;2022-12-24T02:13:02;63.83;;;17.17;;
18748;SDS011;9503;53.560;10.246;2022-12-24T02:15:32;76.33;;;17.53;;
18748;SDS011;9503;53.560;10.246;2022-12-24T02:18:06;71.53;;;17.87;;
18748;SDS011;9503;53.560;10.246;2022-12-24T02:20:48;57.30;;;15.93;;
18748;SDS011;9503;53.560;10.246;2022-12-24T02:23:48;61.53;;;16.37;;
18748;SDS011;9503;53.560;10.246;2022-12-24T02:26:32;60.33;;;17.00;;
18748;SDS011;9503;53.560;10.246;2022-12-24T02:29:18;55.13;;;17.23;;
18748;SDS011;9503;53.560;10.246;2022-12-24T02:32:00;61.30;;;15.30;;
18748;SDS011;9503;53.560;10.246;2022-12-24T02:34:30;53.00;;;15.10;;
18748;SDS011;9503;53.560;10.246;2022-12-24T02:37:03;47.43;;;14.83;;
18748;SDS011;9503;53.560;10.246;2022-12-24T02:39:36;57.07;;;16.73;;
18748;SDS011;9503;53.560;10.246;2022-12-24T02:42:07;52.67;;;14.10;;
18748;SDS011;9503;53.560;10.246;2022-12-24T02:44:38;62.63;;;16.43;;
18748;SDS011;9503;53.560;10.246;2022-12-24T02:47:10;53.83;;;14.67;;
18748;SDS011;9503;53.560;10.246;2022-12-24T02:49:42;68.73;;;16.07;;
18748;SDS011;9503;53.560;10.246;2022-12-24T02:52:25;54.23;;;16.00;;
18748;SDS011;9503;53.560;10.246;2022-12-24T02:54:53;62.93;;;15.67;;
18748;SDS011;9503;53.560;10.246;2022-12-24T02:57:21;62.90;;;14.33;;
18748;SDS011;9503;53.560;10.246;2022-12-24T02:59:59;51.63;;;14.93;;
18748;SDS011;9503;53.560;10.246;2022-12-24T03:02:35;50.27;;;14.03;;
18748;SDS011;9503;53.560;10.246;2022-12-24T03:05:16;56.53;;;14.63;;
18748;SDS011;9503;53.560;10.246;2022-12-24T03:07:50;43.07;;;13.60;;
18748;SDS011;9503;53.560;10.246;2022-12-24T03:10:26;50.43;;;13.30;;
18748;SDS011;9503;53.560;10.246;2022-12-24T03:13:01;49.63;;;14.23;;
18748;SDS011;9503;53.560;10.246;2022-12-24T03:15:31;51.03;;;13.43;;
18748;SDS011;9503;53.560;10.246;2022-12-24T03:18:00;33.87;;;12.47;;
18748;SDS011;9503;53.560;10.246;2022-12-24T03:20:30;42.93;;;12.90;;
18748;SDS011;9503;53.560;10.246;2022-12-24T03:23:00;39.60;;;12.00;;
18748;SDS011;9503;53.560;10.246;2022-12-24T03:25:28;54.93;;;12.83;;
18748;SDS011;9503;53.560;10.246;2022-12-24T03:27:56;44.60;;;12.50;;
18748;SDS011;9503;53.560;10.246;2022-12-24T03:30:24;51.90;;;14.10;;
18748;SDS011;9503;53.560;10.246;2022-12-24T03:32:51;50.33;;;13.10;;
18748;SDS011;9503;53.560;10.246;2022-12-24T03:35:20;42.27;;;13.07;;
18748;SDS011;9503;53.560;10.246;2022-12-24T03:37:46;33.50;;;12.00;;
18748;SDS011;9503;53.560;10.246;2022-12-24T03:40:13;40.47;;;12.53;;
18748;SDS011;9503;53.560;10.246;2022-12-24T03:42:39;33.37;;;11.17;;
18748;SDS011;9503;53.560;10.246;2022-12-24T03:45:06;35.27;;;11.43;;
18748;SDS011;9503;53.560;10.246;2022-12-24T03:47:33;41.43;;;12.80;;
18748;SDS011;9503;53.560;10.246;2022-12-24T03:50:00;38.80;;;12.40;;
18748;SDS011;9503;53.560;10.246;2022-12-24T03:52:28;36.17;;;11.63;;
18748;SDS011;9503;53.560;10.246;2022-12-24T03:54:54;38.13;;;10.80;;
18748;SDS011;9503;53.560;10.246;2022-12-24T03:57:21;34.77;;;10.13;;
18748;SDS011;9503;53.560;10.246;2022-12-24T03:59:48;33.10;;;11.90;;
18748;SDS011;9503;53.560;10.246;2022-12-24T04:02:14;34.50;;;10.37;;
18748;SDS011;9503;53.560;10.246;2022-12-24T04:04:41;30.03;;;9.57;;
18748;SDS011;9503;53.560;10.246;2022-12-24T04:07:08;34.20;;;10.57;;
18748;SDS011;9503;53.560;10.246;2022-12-24T04:09:36;34.83;;;10.93;;
18748;SDS011;9503;53.560;10.246;2022-12-24T04:12:03;39.47;;;11.53;;
18748;SDS011;9503;53.560;10.246;2022-12-24T04:14:30;32.93;;;10.67;;
18748;SDS011;9503;53.560;10.246;2022-12-24T04:16:56;31.03;;;10.07;;
18748;SDS011;9503;53.560;10.246;2022-12-24T04:19:23;34.67;;;10.97;;
18748;SDS011;9503;53.560;10.246;2022-12-24T04:21:50;33.17;;;10.23;;
18748;SDS011;9503;53.560;10.246;2022-12-24T04:24:16;27.67;;;9.93;;
18748;SDS011;9503;53.560;10.246;2022-12-24T04:26:44;36.33;;;11.10;;
18748;SDS011;9503;53.560;10.246;2022-12-24T04:29:11;29.97;;;10.43;;
18748;SDS011;9503;53.560;10.246;2022-12-24T04:31:38;29.67;;;10.57;;
18748;SDS011;9503;53.560;10.246;2022-12-24T04:34:04;35.67;;;10.80;;
18748;SDS011;9503;53.560;10.246;2022-12-24T04:36:31;35.80;;;12.03;;
18748;SDS011;9503;53.560;10.246;2022-12-24T04:38:58;36.60;;;9.87;;
18748;SDS011;9503;53.560;10.246;2022-12-24T04:41:25;36.90;;;11.03;;
18748;SDS011;9503;53.560;10.246;2022-12-24T04:43:53;34.70;;;11.37;;
18748;SDS011;9503;53.560;10.246;2022-12-24T04:46:21;35.30;;;11.47;;
18748;SDS011;9503;53.560;10.246;2022-12-24T04:48:49;30.67;;;11.43;;
18748;SDS011;9503;53.560;10.246;2022-12-24T04:51:17;36.80;;;11.43;;
18748;SDS011;9503;53.560;10.246;2022-12-24T04:53:44;36.27;;;12.00;;
18748;SDS011;9503;53.560;10.246;2022-12-24T04:56:11;29.47;;;10.37;;
18748;SDS011;9503;53.560;10.246;2022-12-24T04:58:39;33.60;;;11.73;;
18748;SDS011;9503;53.560;10.246;2022-12-24T05:01:14;33.97;;;11.23;;
18748;SDS011;9503;53.560;10.246;2022-12-24T05:03:43;28.83;;;11.43;;
18748;SDS011;9503;53.560;10.246;2022-12-24T05:06:10;29.03;;;10.37;;
18748;SDS011;9503;53.560;10.246;2022-12-24T05:08:39;29.20;;;10.60;;
18748;SDS011;9503;53.560;10.246;2022-12-24T05:11:07;30.53;;;10.63;;
18748;SDS011;9503;53.560;10.246;2022-12-24T05:13:38;40.07;;;11.93;;
18748;SDS011;9503;53.560;10.246;2022-12-24T05:16:05;38.20;;;10.03;;
18748;SDS011;9503;53.560;10.246;2022-12-24T05:18:33;38.63;;;11.13;;
18748;SDS011;9503;53.560;10.246;2022-12-24T05:20:59;33.83;;;10.07;;
18748;SDS011;9503;53.560;10.246;2022-12-24T05:23:26;38.93;;;10.80;;
18748;SDS011;9503;53.560;10.246;2022-12-24T05:26:12;34.73;;;10.57;;
18748;SDS011;9503;53.560;10.246;2022-12-24T05:28:47;38.90;;;11.17;;
18748;SDS011;9503;53.560;10.246;2022-12-24T05:31:14;40.83;;;10.80;;
18748;SDS011;9503;53.560;10.246;2022-12-24T05:33:41;31.63;;;11.07;;
18748;SDS011;9503;53.560;10.246;2022-12-24T05:36:08;36.23;;;10.97;;
18748;SDS011;9503;53.560;10.246;2022-12-24T05:38:36;38.93;;;11.10;;
18748;SDS011;9503;53.560;10.246;2022-12-24T05:41:02;32.73;;;9.93;;
18748;SDS011;9503;53.560;10.246;2022-12-24T05:43:29;34.43;;;11.80;;
18748;SDS011;9503;53.560;10.246;2022-12-24T05:45:56;41.17;;;12.53;;
18748;SDS011;9503;53.560;10.246;2022-12-24T05:48:24;37.60;;;10.17;;
18748;SDS011;9503;53.560;10.246;2022-12-24T05:50:52;35.27;;;9.30;;
18748;SDS011;9503;53.560;10.246;2022-12-24T05:53:20;39.33;;;11.43;;
18748;SDS011;9503;53.560;10.246;2022-12-24T05:55:47;37.63;;;10.20;;
18748;SDS011;9503;53.560;10.246;2022-12-24T05:58:14;27.00;;;10.33;;
18748;SDS011;9503;53.560;10.246;2022-12-24T06:00:41;32.27;;;11.40;;
18748;SDS011;9503;53.560;10.246;2022-12-24T06:03:08;28.63;;;9.27;;
18748;SDS011;9503;53.560;10.246;2022-12-24T06:05:34;29.97;;;9.87;;
18748;SDS011;9503;53.560;10.246;2022-12-24T06:08:02;25.87;;;9.47;;
18748;SDS011;9503;53.560;10.246;2022-12-24T06:10:29;26.60;;;9.87;;
18748;SDS011;9503;53.560;10.246;2022-12-24T06:12:56;30.03;;;10.57;;
18748;SDS011;9503;53.560;10.246;2022-12-24T06:15:23;24.93;;;8.53;;
18748;SDS011;9503;53.560;10.246;2022-12-24T06:17:49;26.87;;;9.70;;
18748;SDS011;9503;53.560;10.246;2022-12-24T06:20:16;27.83;;;9.87;;
18748;SDS011;9503;53.560;10.246;2022-12-24T06:22:42;26.03;;;8.53;;
18748;SDS011;9503;53.560;10.246;2022-12-24T06:25:10;25.63;;;9.20;;
18748;SDS011;9503;53.560;10.246;2022-12-24T06:27:37;24.80;;;9.03;;
18748;SDS011;9503;53.560;10.246;2022-12-24T06:30:04;22.33;;;8.30;;
18748;SDS011;9503;53.560;10.246;2022-12-24T06:32:32;22.37;;;8.73;;
18748;SDS011;9503;53.560;10.246;2022-12-24T06:34:58;24.70;;;8.57;;
18748;SDS011;9503;53.560;10.246;2022-12-24T06:37:25;22.30;;;8.17;;
18748;SDS011;9503;53.560;10.246;2022-12-24T06:39:51;33.27;;;8.90;;
18748;SDS011;9503;53.560;10.246;2022-12-24T06:42:19;20.27;;;7.97;;
18748;SDS011;9503;53.560;10.246;2022-12-24T06:44:48;18.27;;;7.33;;
18748;SDS011;9503;53.560;10.246;2022-12-24T06:47:14;21.90;;;8.33;;
18748;SDS011;9503;53.560;10.246;2022-12-24T06:49:41;17.60;;;6.93;;
18748;SDS011;9503;53.560;10.246;2022-12-24T06:52:08;20.30;;;7.60;;
18748;SDS011;9503;53.560;10.246;2022-12-24T06:54:34;21.50;;;6.97;;
18748;SDS011;9503;53.560;10.246;2022-12-24T06:57:01;16.90;;;7.17;;
18748;SDS011;9503;53.560;10.246;2022-12-24T06:59:29;20.70;;;7.80;;
18748;SDS011;9503;53.560;10.246;2022-12-24T07:01:55;17.93;;;6.87;;
18748;SDS011;9503;53.560;10.246;2022-12-24T07:04:22;18.40;;;7.57;;
18748;SDS011;9503;53.560;10.246;2022-12-24T07:06:49;20.63;;;7.17;;
18748;SDS011;9503;53.560;10.246;2022-12-24T07:09:15;16.47;;;6.53;;
18748;SDS011;9503;53.560;10.246;2022-12-24T07:11:42;17.83;;;6.60;;
18748;SDS011;9503;53.560;10.246;2022-12-24T07:14:08;19.40;;;6.57;;
18748;SDS011;9503;53.560;10.246;2022-12-24T07:16:36;15.00;;;6.50;;
18748;SDS011;9503;53.560;10.246;2022-12-24T07:19:03;15.23;;;6.57;;
18748;SDS011;9503;53.560;10.246;2022-12-24T07:21:29;13.43;;;6.37;;
18748;SDS011;9503;53.560;10.246;2022-12-24T07:23:56;19.50;;;6.37;;
18748;SDS011;9503;53.560;10.246;2022-12-24T07:26:23;15.70;;;7.47;;
18748;SDS011;9503;53.560;10.246;2022-12-24T07:28:49;17.33;;;6.93;;
18748;SDS011;9503;53.560;10.246;2022-12-24T07:31:16;19.40;;;6.70;;
18748;SDS011;9503;53.560;10.246;2022-12-24T07:33:44;14.80;;;6.57;;
18748;SDS011;9503;53.560;10.246;2022-12-24T07:36:13;13.50;;;6.03;;
18748;SDS011;9503;53.560;10.246;2022-12-24T07:38:43;19.33;;;6.43;;
18748;SDS011;9503;53.560;10.246;2022-12-24T07:41:10;15.07;;;6.53;;
18748;SDS011;9503;53.560;10.246;2022-12-24T07:43:37;14.57;;;6.57;;
18748;SDS011;9503;53.560;10.246;2022-12-24T07:46:04;14.00;;;7.13;;
18748;SDS011;9503;53.560;10.246;2022-12-24T07:48:31;14.83;;;5.90;;
18748;SDS011;9503;53.560;10.246;2022-12-24T07:50:59;16.47;;;6.50;;
18748;SDS011;9503;53.560;10.246;2022-12-24T07:53:27;15.90;;;7.43;;
18748;SDS011;9503;53.560;10.246;2022-12-24T07:55:54;15.27;;;6.77;;
18748;SDS011;9503;53.560;10.246;2022-12-24T07:58:21;20.70;;;7.23;;
18748;SDS011;9503;53.560;10.246;2022-12-24T08:00:48;16.53;;;6.30;;
18748;SDS011;9503;53.560;10.246;2022-12-24T08:03:20;21.57;;;7.50;;
18748;SDS011;9503;53.560;10.246;2022-12-24T08:05:47;15.37;;;6.07;;
18748;SDS011;9503;53.560;10.246;2022-12-24T08:08:15;17.10;;;7.03;;
18748;SDS011;9503;53.560;10.246;2022-12-24T08:10:42;18.73;;;6.90;;
18748;SDS011;9503;53.560;10.246;2022-12-24T08:13:10;14.73;;;6.80;;
18748;SDS011;9503;53.560;10.246;2022-12-24T08:15:37;17.70;;;6.83;;
18748;SDS011;9503;53.560;10.246;2022-12-24T08:18:03;17.17;;;6.33;;
18748;SDS011;9503;53.560;10.246;2022-12-24T08:20:30;16.43;;;7.27;;
18748;SDS011;9503;53.560;10.246;2022-12-24T08:22:57;20.47;;;7.17;;
18748;SDS011;9503;53.560;10.246;2022-12-24T08:25:25;16.13;;;7.30;;
18748;SDS011;9503;53.560;10.246;2022-12-24T08:27:51;12.20;;;5.83;;
18748;SDS011;9503;53.560;10.246;2022-12-24T08:30:18;14.83;;;5.97;;
18748;SDS011;9503;53.560;10.246;2022-12-24T08:32:45;14.37;;;5.83;;
18748;SDS011;9503;53.560;10.246;2022-12-24T08:35:11;14.10;;;5.90;;
18748;SDS011;9503;53.560;10.246;2022-12-24T08:37:38;12.63;;;5.43;;
18748;SDS011;9503;53.560;10.246;2022-12-24T08:40:05;14.83;;;6.43;;
18748;SDS011;9503;53.560;10.246;2022-12-24T08:42:33;12.47;;;5.50;;
18748;SDS011;9503;53.560;10.246;2022-12-24T08:45:00;15.13;;;5.93;;
18748;SDS011;9503;53.560;10.246;2022-12-24T08:47:27;17.43;;;6.50;;
18748;SDS011;9503;53.560;10.246;2022-12-24T08:49:53;13.87;;;5.90;;
18748;SDS011;9503;53.560;10.246;2022-12-24T08:52:20;11.87;;;5.43;;
18748;SDS011;9503;53.560;10.246;2022-12-24T08:54:46;13.73;;;6.30;;
18748;SDS011;9503;53.560;10.246;2022-12-24T08:57:13;16.50;;;5.60;;
18748;SDS011;9503;53.560;10.246;2022-12-24T08:59:41;12.40;;;5.67;;
18748;SDS011;9503;53.560;10.246;2022-12-24T09:02:08;12.30;;;5.90;;
18748;SDS011;9503;53.560;10.246;2022-12-24T09:04:36;12.50;;;5.37;;
18748;SDS011;9503;53.560;10.246;2022-12-24T09:07:05;12.17;;;5.63;;
18748;SDS011;9503;53.560;10.246;2022-12-24T09:09:32;12.43;;;5.53;;
18748;SDS011;9503;53.560;10.246;2022-12-24T09:11:58;9.97;;;5.20;;
18748;SDS011;9503;53.560;10.246;2022-12-24T09:14:25;12.57;;;5.67;;
18748;SDS011;9503;53.560;10.246;2022-12-24T09:16:54;13.37;;;6.33;;
18748;SDS011;9503;53.560;10.246;2022-12-24T09:19:20;10.60;;;5.67;;
18748;SDS011;9503;53.560;10.246;2022-12-24T09:21:47;10.77;;;5.70;;
18748;SDS011;9503;53.560;10.246;2022-12-24T09:24:14;12.30;;;5.97;;
18748;SDS011;9503;53.560;10.246;2022-12-24T09:26:41;11.57;;;5.90;;
18748;SDS011;9503;53.560;10.246;2022-12-24T09:29:10;11.63;;;5.70;;
18748;SDS011;9503;53.560;10.246;2022-12-24T09:31:36;13.40;;;6.40;;
18748;SDS011;9503;53.560;10.246;2022-12-24T09:34:04;13.00;;;6.53;;
18748;SDS011;9503;53.560;10.246;2022-12-24T09:36:32;14.20;;;6.17;;
18748;SDS011;9503;53.560;10.246;2022-12-24T09:38:59;13.17;;;6.30;;
18748;SDS011;9503;53.560;10.246;2022-12-24T09:41:29;11.43;;;6.03;;
18748;SDS011;9503;53.560;10.246;2022-12-24T09:44:07;13.17;;;6.33;;
18748;SDS011;9503;53.560;10.246;2022-12-24T09:46:43;13.73;;;6.30;;
18748;SDS011;9503;53.560;10.246;2022-12-24T09:49:15;16.57;;;6.90;;
18748;SDS011;9503;53.560;10.246;2022-12-24T09:51:46;14.53;;;6.90;;
18748;SDS011;9503;53.560;10.246;2022-12-24T09:54:16;12.77;;;6.77;;
18748;SDS011;9503;53.560;10.246;2022-12-24T09:56:47;14.53;;;6.47;;
18748;SDS011;9503;53.560;10.246;2022-12-24T09:59:15;12.67;;;6.47;;
18748;SDS011;9503;53.560;10.246;2022-12-24T10:01:45;13.73;;;6.73;;
18748;SDS011;9503;53.560;10.246;2022-12-24T10:04:16;16.83;;;7.80;;
18748;SDS011;9503;53.560;10.246;2022-12-24T10:06:46;15.10;;;6.83;;
18748;SDS011;9503;53.560;10.246;2022-12-24T10:09:19;15.43;;;7.47;;
18748;SDS011;9503;53.560;10.246;2022-12-24T10:11:55;14.73;;;6.80;;
18748;SDS011;9503;53.560;10.246;2022-12-24T10:14:33;13.57;;;7.33;;
18748;SDS011;9503;53.560;10.246;2022-12-24T10:17:19;13.67;;;6.87;;
18748;SDS011;9503;53.560;10.246;2022-12-24T10:19:58;12.60;;;6.83;;
18748;SDS011;9503;53.560;10.246;2022-12-24T10:22:39;14.40;;;7.27;;
18748;SDS011;9503;53.560;10.246;2022-12-24T10:25:15;14.43;;;7.47;;
18748;SDS011;9503;53.560;10.246;2022-12-24T10:27:46;15.10;;;7.30;;
18748;SDS011;9503;53.560;10.246;2022-12-24T10:30:13;13.73;;;6.93;;
18748;SDS011;9503;53.560;10.246;2022-12-24T10:32:42;13.70;;;7.90;;
18748;SDS011;9503;53.560;10.246;2022-12-24T10:35:16;12.90;;;7.23;;
18748;SDS011;9503;53.560;10.246;2022-12-24T10:37:48;13.13;;;6.80;;
18748;SDS011;9503;53.560;10.246;2022-12-24T10:40:19;12.03;;;6.90;;
18748;SDS011;9503;53.560;10.246;2022-12-24T10:42:55;12.53;;;7.10;;
18748;SDS011;9503;53.560;10.246;2022-12-24T10:45:23;13.20;;;7.47;;
18748;SDS011;9503;53.560;10.246;2022-12-24T10:47:56;11.40;;;6.90;;
18748;SDS011;9503;53.560;10.246;2022-12-24T10:50:31;18.17;;;8.07;;
18748;SDS011;9503;53.560;10.246;2022-12-24T10:53:03;12.93;;;7.33;;
18748;SDS011;9503;53.560;10.246;2022-12-24T10:55:37;18.50;;;8.20;;
18748;SDS011;9503;53.560;10.246;2022-12-24T10:58:04;15.13;;;8.50;;
18748;SDS011;9503;53.560;10.246;2022-12-24T11:00:38;11.73;;;7.60;;
18748;SDS011;9503;53.560;10.246;2022-12-24T11:03:14;17.73;;;8.70;;
18748;SDS011;9503;53.560;10.246;2022-12-24T11:05:59;14.77;;;7.53;;
18748;SDS011;9503;53.560;10.246;2022-12-24T11:08:27;14.17;;;8.20;;
18748;SDS011;9503;53.560;10.246;2022-12-24T11:10:54;17.37;;;8.40;;
18748;SDS011;9503;53.560;10.246;2022-12-24T11:13:23;16.20;;;7.87;;
18748;SDS011;9503;53.560;10.246;2022-12-24T11:15:58;13.93;;;7.93;;
18748;SDS011;9503;53.560;10.246;2022-12-24T11:18:26;14.87;;;7.60;;
18748;SDS011;9503;53.560;10.246;2022-12-24T11:20:53;14.67;;;7.73;;
18748;SDS011;9503;53.560;10.246;2022-12-24T11:23:24;13.27;;;7.60;;
18748;SDS011;9503;53.560;10.246;2022-12-24T11:25:52;14.13;;;7.60;;
18748;SDS011;9503;53.560;10.246;2022-12-24T11:28:21;13.10;;;7.30;;
18748;SDS011;9503;53.560;10.246;2022-12-24T11:30:57;15.33;;;8.50;;
18748;SDS011;9503;53.560;10.246;2022-12-24T11:33:25;14.50;;;8.20;;
18748;SDS011;9503;53.560;10.246;2022-12-24T11:35:55;18.27;;;8.63;;
18748;SDS011;9503;53.560;10.246;2022-12-24T11:38:28;15.23;;;8.00;;
18748;SDS011;9503;53.560;10.246;2022-12-24T11:41:00;21.90;;;10.80;;
18748;SDS011;9503;53.560;10.246;2022-12-24T11:43:33;18.83;;;10.43;;
18748;SDS011;9503;53.560;10.246;2022-12-24T11:46:13;14.67;;;7.90;;
18748;SDS011;9503;53.560;10.246;2022-12-24T11:48:42;17.90;;;9.30;;
18748;SDS011;9503;53.560;10.246;2022-12-24T11:51:18;16.47;;;9.50;;
18748;SDS011;9503;53.560;10.246;2022-12-24T11:53:49;16.20;;;8.67;;
18748;SDS011;9503;53.560;10.246;2022-12-24T11:56:26;17.27;;;8.47;;
18748;SDS011;9503;53.560;10.246;2022-12-24T11:58:58;16.73;;;8.53;;
18748;SDS011;9503;53.560;10.246;2022-12-24T12:01:29;13.83;;;7.67;;
18748;SDS011;9503;53.560;10.246;2022-12-24T12:03:59;13.77;;;7.80;;
18748;SDS011;9503;53.560;10.246;2022-12-24T12:06:31;14.13;;;8.53;;
18748;SDS011;9503;53.560;10.246;2022-12-24T12:09:05;14.27;;;8.00;;
18748;SDS011;9503;53.560;10.246;2022-12-24T12:11:37;13.30;;;7.30;;
18748;SDS011;9503;53.560;10.246;2022-12-24T12:14:07;16.13;;;9.10;;
18748;SDS011;9503;53.560;10.246;2022-12-24T12:16:42;14.27;;;8.47;;
18748;SDS011;9503;53.560;10.246;2022-12-24T12:19:33;15.30;;;8.90;;
18748;SDS011;9503;53.560;10.246;2022-12-24T12:22:09;13.13;;;8.60;;
18748;SDS011;9503;53.560;10.246;2022-12-24T12:24:47;19.40;;;9.77;;
18748;SDS011;9503;53.560;10.246;2022-12-24T12:27:19;18.27;;;8.97;;
18748;SDS011;9503;53.560;10.246;2022-12-24T12:29:53;16.60;;;8.63;;
18748;SDS011;9503;53.560;10.246;2022-12-24T12:32:26;15.03;;;9.00;;
18748;SDS011;9503;53.560;10.246;2022-12-24T12:35:02;28.83;;;12.03;;
18748;SDS011;9503;53.560;10.246;2022-12-24T12:37:42;16.40;;;9.60;;
18748;SDS011;9503;53.560;10.246;2022-12-24T12:40:15;26.40;;;15.63;;
18748;SDS011;9503;53.560;10.246;2022-12-24T12:42:44;29.33;;;13.97;;
18748;SDS011;9503;53.560;10.246;2022-12-24T12:45:27;30.00;;;15.23;;
18748;SDS011;9503;53.560;10.246;2022-12-24T12:48:08;28.00;;;13.70;;
18748;SDS011;9503;53.560;10.246;2022-12-24T12:50:47;31.07;;;13.60;;
18748;SDS011;9503;53.560;10.246;2022-12-24T12:53:23;35.63;;;13.83;;
18748;SDS011;9503;53.560;10.246;2022-12-24T12:56:03;33.70;;;14.30;;
18748;SDS011;9503;53.560;10.246;2022-12-24T12:58:40;38.40;;;15.90;;
18748;SDS011;9503;53.560;10.246;2022-12-24T13:01:13;28.43;;;14.13;;
18748;SDS011;9503;53.560;10.246;2022-12-24T13:03:49;38.50;;;16.00;;
18748;SDS011;9503;53.560;10.246;2022-12-24T13:06:44;25.60;;;13.70;;
18748;SDS011;9503;53.560;10.246;2022-12-24T13:09:40;28.23;;;14.17;;
18748;SDS011;9503;53.560;10.246;2022-12-24T13:15:26;31.77;;;16.03;;
18748;SDS011;9503;53.560;10.246;2022-12-24T13:18:09;30.77;;;15.10;;
18748;SDS011;9503;53.560;10.246;2022-12-24T13:20:49;61.73;;;25.10;;
18748;SDS011;9503;53.560;10.246;2022-12-24T13:23:18;48.70;;;20.93;;
18748;SDS011;9503;53.560;10.246;2022-12-24T13:25:47;40.07;;;17.47;;
18748;SDS011;9503;53.560;10.246;2022-12-24T13:28:29;32.83;;;15.13;;
18748;SDS011;9503;53.560;10.246;2022-12-24T13:33:57;28.73;;;14.70;;
18748;SDS011;9503;53.560;10.246;2022-12-24T13:36:59;39.23;;;18.47;;
18748;SDS011;9503;53.560;10.246;2022-12-24T13:39:27;36.63;;;16.80;;
18748;SDS011;9503;53.560;10.246;2022-12-24T13:41:54;30.87;;;16.23;;
18748;SDS011;9503;53.560;10.246;2022-12-24T13:44:25;30.53;;;14.90;;
18748;SDS011;9503;53.560;10.246;2022-12-24T13:46:59;34.93;;;16.00;;
18748;SDS011;9503;53.560;10.246;2022-12-24T13:49:30;25.70;;;13.47;;
18748;SDS011;9503;53.560;10.246;2022-12-24T13:52:06;29.67;;;14.87;;
18748;SDS011;9503;53.560;10.246;2022-12-24T13:54:42;34.27;;;16.03;;
18748;SDS011;9503;53.560;10.246;2022-12-24T13:57:25;34.07;;;15.20;;
18748;SDS011;9503;53.560;10.246;2022-12-24T13:59:58;26.53;;;13.40;;
18748;SDS011;9503;53.560;10.246;2022-12-24T14:02:27;39.97;;;19.07;;
18748;SDS011;9503;53.560;10.246;2022-12-24T14:05:01;35.30;;;18.90;;
18748;SDS011;9503;53.560;10.246;2022-12-24T14:07:32;49.03;;;20.77;;
18748;SDS011;9503;53.560;10.246;2022-12-24T14:10:00;34.13;;;17.67;;
18748;SDS011;9503;53.560;10.246;2022-12-24T14:12:32;36.33;;;17.57;;
18748;SDS011;9503;53.560;10.246;2022-12-24T14:18:32;36.27;;;17.43;;
18748;SDS011;9503;53.560;10.246;2022-12-24T14:21:03;41.07;;;16.73;;
18748;SDS011;9503;53.560;10.246;2022-12-24T14:23:45;42.83;;;16.93;;
18748;SDS011;9503;53.560;10.246;2022-12-24T14:26:19;29.97;;;13.77;;
18748;SDS011;9503;53.560;10.246;2022-12-24T14:28:49;39.03;;;14.73;;
18748;SDS011;9503;53.560;10.246;2022-12-24T14:31:20;35.77;;;15.63;;
18748;SDS011;9503;53.560;10.246;2022-12-24T14:33:48;34.40;;;15.00;;
18748;SDS011;9503;53.560;10.246;2022-12-24T14:36:17;42.03;;;15.70;;
18748;SDS011;9503;53.560;10.246;2022-12-24T14:38:47;35.33;;;16.30;;
18748;SDS011;9503;53.560;10.246;2022-12-24T14:41:18;40.03;;;19.50;;
18748;SDS011;9503;53.560;10.246;2022-12-24T14:43:56;41.40;;;20.70;;
18748;SDS011;9503;53.560;10.246;2022-12-24T14:46:31;46.20;;;23.67;;
18748;SDS011;9503;53.560;10.246;2022-12-24T14:49:09;77.30;;;34.47;;
18748;SDS011;9503;53.560;10.246;2022-12-24T14:51:46;46.77;;;26.00;;
18748;SDS011;9503;53.560;10.246;2022-12-24T14:54:25;37.60;;;18.37;;
18748;SDS011;9503;53.560;10.246;2022-12-24T14:57:20;40.70;;;17.40;;
18748;SDS011;9503;53.560;10.246;2022-12-24T14:59:49;46.87;;;16.90;;